sensor_id;sensor_type;location;lat;lon;timestamp;pressure;altitude;pressure_sealevel;temperature;humidity
43683;BME280;29285;52.128;21.060;2022-11-12T00:03:08;101727.50;;;10.45;96.34
43683;BME280;29285;52.128;21.060;2022-11-12T00:08:10;101722.24;;;10.40;96.26
43683;BME280;29285;52.128;21.060;2022-11-12T00:13:11;101721.81;;;10.39;96.20
43683;BME280;29285;52.128;21.060;2022-11-12T00:18:13;101726.58;;;10.41;96.15
43683;BME280;29285;52.128;21.060;2022-11-12T00:23:14;101727.95;;;10.48;96.23
43683;BME280;29285;52.128;21.060;2022-11-12T00:28:15;101734.91;;;10.50;96.26
43683;BME280;29285;52.128;21.060;2022-11-12T00:33:16;101734.05;;;10.53;96.29
43683;BME280;29285;52.128;21.060;2022-11-12T00:38:16;101740.16;;;10.55;96.28
43683;BME280;29285;52.128;21.060;2022-11-12T00:43:17;101741.03;;;10.57;96.28
43683;BME280;29285;52.128;21.060;2022-11-12T00:48:19;101736.69;;;10.59;96.29
43683;BME280;29285;52.128;21.060;2022-11-12T00:53:19;101732.38;;;10.61;96.29
43683;BME280;29285;52.128;21.060;2022-11-12T00:58:20;101725.88;;;10.61;96.29
43683;BME280;29285;52.128;21.060;2022-11-12T01:03:21;101731.08;;;10.61;96.25
43683;BME280;29285;52.128;21.060;2022-11-12T01:08:23;101733.72;;;10.64;96.28
43683;BME280;29285;52.128;21.060;2022-11-12T01:13:24;101722.44;;;10.65;96.27
43683;BME280;29285;52.128;21.060;2022-11-12T01:18:25;101714.63;;;10.65;96.22
43683;BME280;29285;52.128;21.060;2022-11-12T01:23:26;101722.89;;;10.69;96.23
43683;BME280;29285;52.128;21.060;2022-11-12T01:28:27;101718.55;;;10.71;96.25
43683;BME280;29285;52.128;21.060;2022-11-12T01:33:28;101718.58;;;10.75;96.25
43683;BME280;29285;52.128;21.060;2022-11-12T01:38:36;101722.89;;;10.72;96.20
43683;BME280;29285;52.128;21.060;2022-11-12T01:43:35;101712.05;;;10.71;96.14
43683;BME280;29285;52.128;21.060;2022-11-12T01:48:40;101720.28;;;10.68;96.03
43683;BME280;29285;52.128;21.060;2022-11-12T01:53:46;101725.52;;;10.79;96.12
43683;BME280;29285;52.128;21.060;2022-11-12T01:58:51;101726.44;;;10.82;96.21
43683;BME280;29285;52.128;21.060;2022-11-12T02:03:55;101730.32;;;10.84;96.20
43683;BME280;29285;52.128;21.060;2022-11-12T02:08:56;101730.77;;;10.86;96.18
43683;BME280;29285;52.128;21.060;2022-11-12T02:13:57;101728.62;;;10.86;96.11
43683;BME280;29285;52.128;21.060;2022-11-12T02:19:01;101734.30;;;10.96;96.21
43683;BME280;29285;52.128;21.060;2022-11-12T02:29:19;101726.90;;;10.94;96.14
43683;BME280;29285;52.128;21.060;2022-11-12T02:34:21;101729.48;;;10.85;95.98
43683;BME280;29285;52.128;21.060;2022-11-12T02:39:22;101731.60;;;10.78;95.80
43683;BME280;29285;52.128;21.060;2022-11-12T02:44:23;101733.33;;;10.79;95.77
43683;BME280;29285;52.128;21.060;2022-11-12T02:49:24;101735.91;;;10.69;95.71
43683;BME280;29285;52.128;21.060;2022-11-12T02:54:25;101735.82;;;10.57;95.52
43683;BME280;29285;52.128;21.060;2022-11-12T02:59:26;101735.34;;;10.48;95.42
43683;BME280;29285;52.128;21.060;2022-11-12T03:04:27;101735.37;;;10.54;95.52
43683;BME280;29285;52.128;21.060;2022-11-12T03:09:28;101739.69;;;10.51;95.58
43683;BME280;29285;52.128;21.060;2022-11-12T03:14:29;101735.77;;;10.49;95.56
43683;BME280;29285;52.128;21.060;2022-11-12T03:19:30;101744.06;;;10.58;95.70
43683;BME280;29285;52.128;21.060;2022-11-12T03:24:31;101747.12;;;10.57;95.78
43683;BME280;29285;52.128;21.060;2022-11-12T03:29:32;101750.57;;;10.58;95.79
43683;BME280;29285;52.128;21.060;2022-11-12T03:34:33;101752.32;;;10.57;95.79
43683;BME280;29285;52.128;21.060;2022-11-12T03:39:34;101751.47;;;10.63;95.86
43683;BME280;29285;52.128;21.060;2022-11-12T03:44:36;101753.25;;;10.69;95.96
43683;BME280;29285;52.128;21.060;2022-11-12T03:49:37;101755.39;;;10.65;95.89
43683;BME280;29285;52.128;21.060;2022-11-12T03:54:38;101751.47;;;10.63;95.84
43683;BME280;29285;52.128;21.060;2022-11-12T03:59:38;101748.47;;;10.68;95.83
43683;BME280;29285;52.128;21.060;2022-11-12T04:04:39;101744.19;;;10.77;95.96
43683;BME280;29285;52.128;21.060;2022-11-12T04:09:59;101745.43;;;10.67;95.87
43683;BME280;29285;52.128;21.060;2022-11-12T04:15:00;101741.94;;;10.64;95.76
43683;BME280;29285;52.128;21.060;2022-11-12T04:20:02;101745.80;;;10.59;95.74
43683;BME280;29285;52.128;21.060;2022-11-12T04:25:21;101744.97;;;10.60;95.73
43683;BME280;29285;52.128;21.060;2022-11-12T04:30:41;101741.52;;;10.64;95.75
43683;BME280;29285;52.128;21.060;2022-11-12T04:35:41;101747.13;;;10.62;95.69
43683;BME280;29285;52.128;21.060;2022-11-12T04:40:42;101738.50;;;10.68;95.72
43683;BME280;29285;52.128;21.060;2022-11-12T04:46:03;101735.09;;;10.78;95.83
43683;BME280;29285;52.128;21.060;2022-11-12T04:51:05;101730.26;;;10.67;95.70
43683;BME280;29285;52.128;21.060;2022-11-12T04:56:08;101727.16;;;10.59;95.46
43683;BME280;29285;52.128;21.060;2022-11-12T05:01:09;101728.87;;;10.59;95.38
43683;BME280;29285;52.128;21.060;2022-11-12T05:06:09;101731.45;;;10.53;95.25
43683;BME280;29285;52.128;21.060;2022-11-12T05:11:29;101735.67;;;10.40;95.04
43683;BME280;29285;52.128;21.060;2022-11-12T05:16:30;101731.67;;;10.26;94.82
43683;BME280;29285;52.128;21.060;2022-11-12T05:21:31;101727.73;;;10.23;94.74
43683;BME280;29285;52.128;21.060;2022-11-12T05:26:50;101737.26;;;10.19;94.76
43683;BME280;29285;52.128;21.060;2022-11-12T05:31:51;101732.03;;;10.17;94.74
43683;BME280;29285;52.128;21.060;2022-11-12T05:36:52;101732.05;;;10.19;94.80
43683;BME280;29285;52.128;21.060;2022-11-12T05:41:53;101741.21;;;10.24;94.91
43683;BME280;29285;52.128;21.060;2022-11-12T05:46:55;101741.64;;;10.25;94.95
43683;BME280;29285;52.128;21.060;2022-11-12T05:51:56;101756.39;;;10.26;94.96
43683;BME280;29285;52.128;21.060;2022-11-12T05:56:57;101755.91;;;10.20;94.90
43683;BME280;29285;52.128;21.060;2022-11-12T06:01:58;101760.62;;;10.16;94.82
43683;BME280;29285;52.128;21.060;2022-11-12T06:06:59;101767.52;;;10.11;94.70
43683;BME280;29285;52.128;21.060;2022-11-12T06:12:03;101773.56;;;10.05;94.58
43683;BME280;29285;52.128;21.060;2022-11-12T06:17:06;101773.52;;;10.02;94.53
43683;BME280;29285;52.128;21.060;2022-11-12T06:22:09;101775.64;;;9.95;94.43
43683;BME280;29285;52.128;21.060;2022-11-12T06:27:12;101781.61;;;9.87;94.29
43683;BME280;29285;52.128;21.060;2022-11-12T06:32:13;101775.47;;;9.80;94.20
43683;BME280;29285;52.128;21.060;2022-11-12T06:37:13;101791.47;;;9.74;94.12
43683;BME280;29285;52.128;21.060;2022-11-12T06:42:15;101797.48;;;9.70;94.04
43683;BME280;29285;52.128;21.060;2022-11-12T06:47:16;101787.46;;;9.64;93.98
43683;BME280;29285;52.128;21.060;2022-11-12T06:52:17;101796.95;;;9.61;93.91
43683;BME280;29285;52.128;21.060;2022-11-12T06:57:18;101799.93;;;9.56;93.84
43683;BME280;29285;52.128;21.060;2022-11-12T07:02:19;101796.41;;;9.50;93.77
43683;BME280;29285;52.128;21.060;2022-11-12T07:07:20;101801.11;;;9.46;93.72
43683;BME280;29285;52.128;21.060;2022-11-12T07:12:21;101809.70;;;9.40;93.65
43683;BME280;29285;52.128;21.060;2022-11-12T07:17:22;101815.63;;;9.30;93.51
43683;BME280;29285;52.128;21.060;2022-11-12T07:22:23;101829.82;;;9.22;93.35
43683;BME280;29285;52.128;21.060;2022-11-12T07:27:28;101828.36;;;9.11;93.24
43683;BME280;29285;52.128;21.060;2022-11-12T07:32:30;101830.55;;;9.12;93.21
43683;BME280;29285;52.128;21.060;2022-11-12T07:37:33;101829.66;;;9.11;93.23
43683;BME280;29285;52.128;21.060;2022-11-12T07:47:57;101824.83;;;9.06;93.22
43683;BME280;29285;52.128;21.060;2022-11-12T07:53:09;101840.91;;;9.10;93.26
43683;BME280;29285;52.128;21.060;2022-11-12T07:58:10;101846.55;;;9.10;93.31
43683;BME280;29285;52.128;21.060;2022-11-12T08:03:11;101840.41;;;9.05;93.27
43683;BME280;29285;52.128;21.060;2022-11-12T08:08:12;101837.88;;;9.09;93.31
43683;BME280;29285;52.128;21.060;2022-11-12T08:13:13;101842.63;;;9.08;93.32
43683;BME280;29285;52.128;21.060;2022-11-12T08:18:15;101843.89;;;9.07;93.26
43683;BME280;29285;52.128;21.060;2022-11-12T08:23:16;101831.45;;;9.16;93.37
43683;BME280;29285;52.128;21.060;2022-11-12T08:28:17;101831.81;;;9.10;93.33
43683;BME280;29285;52.128;21.060;2022-11-12T08:33:18;101833.20;;;9.17;93.42
43683;BME280;29285;52.128;21.060;2022-11-12T08:38:19;101838.03;;;9.20;93.48
43683;BME280;29285;52.128;21.060;2022-11-12T08:43:20;101840.63;;;9.22;93.53
43683;BME280;29285;52.128;21.060;2022-11-12T08:48:21;101838.00;;;9.19;93.48
43683;BME280;29285;52.128;21.060;2022-11-12T08:53:23;101841.81;;;9.14;93.41
43683;BME280;29285;52.128;21.060;2022-11-12T08:58:25;101844.00;;;9.14;93.40
43683;BME280;29285;52.128;21.060;2022-11-12T09:03:27;101852.10;;;9.05;93.33
43683;BME280;29285;52.128;21.060;2022-11-12T09:08:28;101849.86;;;9.01;93.28
43683;BME280;29285;52.128;21.060;2022-11-12T09:13:29;101858.06;;;8.99;93.32
43683;BME280;29285;52.128;21.060;2022-11-12T09:18:32;101868.48;;;9.00;93.35
43683;BME280;29285;52.128;21.060;2022-11-12T09:23:34;101865.85;;;8.99;93.38
43683;BME280;29285;52.128;21.060;2022-11-12T09:28:37;101869.81;;;9.02;93.44
43683;BME280;29285;52.128;21.060;2022-11-12T09:33:38;101868.56;;;9.07;93.52
43683;BME280;29285;52.128;21.060;2022-11-12T09:38:41;101863.42;;;9.11;93.58
43683;BME280;29285;52.128;21.060;2022-11-12T09:43:46;101870.83;;;9.13;93.65
43683;BME280;29285;52.128;21.060;2022-11-12T09:48:55;101872.54;;;9.13;93.63
43683;BME280;29285;52.128;21.060;2022-11-12T09:54:00;101878.56;;;9.10;93.61
43683;BME280;29285;52.128;21.060;2022-11-12T09:59:19;101876.41;;;9.10;93.61
43683;BME280;29285;52.128;21.060;2022-11-12T10:10:04;101877.32;;;9.13;93.67
43683;BME280;29285;52.128;21.060;2022-11-12T10:26:23;101881.49;;;9.04;93.62
43683;BME280;29285;52.128;21.060;2022-11-12T10:31:25;101880.58;;;9.00;93.59
43683;BME280;29285;52.128;21.060;2022-11-12T10:36:30;101883.27;;;9.05;93.65
43683;BME280;29285;52.128;21.060;2022-11-12T10:41:34;101893.12;;;8.99;93.62
43683;BME280;29285;52.128;21.060;2022-11-12T10:46:37;101886.19;;;8.99;93.65
43683;BME280;29285;52.128;21.060;2022-11-12T10:51:38;101887.52;;;9.01;93.70
43683;BME280;29285;52.128;21.060;2022-11-12T10:56:40;101881.58;;;9.08;93.78
43683;BME280;29285;52.128;21.060;2022-11-12T11:01:42;101873.81;;;9.10;93.85
43683;BME280;29285;52.128;21.060;2022-11-12T11:06:44;101884.17;;;9.08;93.85
43683;BME280;29285;52.128;21.060;2022-11-12T11:11:50;101888.67;;;9.22;93.96
43683;BME280;29285;52.128;21.060;2022-11-12T11:17:02;101894.06;;;9.34;94.20
43683;BME280;29285;52.128;21.060;2022-11-12T11:38:34;101887.55;;;9.33;94.11
43683;BME280;29285;52.128;21.060;2022-11-12T11:43:47;101889.75;;;9.36;94.12
43683;BME280;29285;52.128;21.060;2022-11-12T12:00:04;101896.97;;;9.58;94.23
43683;BME280;29285;52.128;21.060;2022-11-12T12:05:37;101900.18;;;9.73;94.45
43683;BME280;29285;52.128;21.060;2022-11-12T12:21:40;101894.84;;;9.60;94.09
43683;BME280;29285;52.128;21.060;2022-11-12T12:26:49;101881.42;;;9.62;94.00
43683;BME280;29285;52.128;21.060;2022-11-12T12:32:09;101881.59;;;9.75;94.06
43683;BME280;29285;52.128;21.060;2022-11-12T12:42:52;101878.44;;;10.02;94.37
43683;BME280;29285;52.128;21.060;2022-11-12T12:47:56;101885.73;;;10.38;94.70
43683;BME280;29285;52.128;21.060;2022-11-12T12:58:42;101884.31;;;10.69;95.21
43683;BME280;29285;52.128;21.060;2022-11-12T13:35:36;101888.03;;;10.06;93.13
43683;BME280;29285;52.128;21.060;2022-11-12T13:46:28;101891.86;;;10.02;92.95
43683;BME280;29285;52.128;21.060;2022-11-12T13:56:45;101894.52;;;10.08;92.92
43683;BME280;29285;52.128;21.060;2022-11-12T14:01:48;101888.58;;;10.20;93.06
43683;BME280;29285;52.128;21.060;2022-11-12T14:12:49;101881.92;;;10.04;92.76
43683;BME280;29285;52.128;21.060;2022-11-12T14:18:21;101882.76;;;10.02;92.61
43683;BME280;29285;52.128;21.060;2022-11-12T14:23:39;101883.30;;;10.12;92.72
43683;BME280;29285;52.128;21.060;2022-11-12T14:28:43;101888.09;;;10.16;92.76
43683;BME280;29285;52.128;21.060;2022-11-12T14:33:45;101886.44;;;10.23;92.84
43683;BME280;29285;52.128;21.060;2022-11-12T14:38:51;101888.60;;;10.22;92.83
43683;BME280;29285;52.128;21.060;2022-11-12T14:43:56;101889.42;;;10.17;92.71
43683;BME280;29285;52.128;21.060;2022-11-12T14:54:56;101889.88;;;10.20;92.73
43683;BME280;29285;52.128;21.060;2022-11-12T14:59:58;101877.33;;;10.23;92.78
43683;BME280;29285;52.128;21.060;2022-11-12T15:05:17;101885.66;;;10.30;92.87
43683;BME280;29285;52.128;21.060;2022-11-12T15:10:35;101888.74;;;10.34;92.95
43683;BME280;29285;52.128;21.060;2022-11-12T15:15:52;101896.09;;;10.31;92.96
43683;BME280;29285;52.128;21.060;2022-11-12T15:21:14;101892.47;;;10.17;92.74
43683;BME280;29285;52.128;21.060;2022-11-12T15:26:35;101893.33;;;10.17;92.71
43683;BME280;29285;52.128;21.060;2022-11-12T15:37:02;101897.66;;;10.18;92.85
43683;BME280;29285;52.128;21.060;2022-11-12T15:42:21;101905.09;;;10.22;92.87
43683;BME280;29285;52.128;21.060;2022-11-12T15:47:30;101907.09;;;10.07;92.68
43683;BME280;29285;52.128;21.060;2022-11-12T15:52:31;101912.77;;;10.11;92.69
43683;BME280;29285;52.128;21.060;2022-11-12T15:57:37;101914.14;;;10.17;92.76
43683;BME280;29285;52.128;21.060;2022-11-12T16:08:17;101920.79;;;10.30;92.96
43683;BME280;29285;52.128;21.060;2022-11-12T16:13:30;101929.09;;;10.37;93.07
43683;BME280;29285;52.128;21.060;2022-11-12T16:18:32;101922.63;;;10.40;93.12
43683;BME280;29285;52.128;21.060;2022-11-12T16:23:33;101934.73;;;10.38;93.07
43683;BME280;29285;52.128;21.060;2022-11-12T16:28:34;101940.31;;;10.33;92.94
43683;BME280;29285;52.128;21.060;2022-11-12T16:33:35;101947.66;;;10.30;92.88
43683;BME280;29285;52.128;21.060;2022-11-12T16:38:36;101946.78;;;10.28;92.77
43683;BME280;29285;52.128;21.060;2022-11-12T16:43:38;101938.16;;;10.32;92.83
43683;BME280;29285;52.128;21.060;2022-11-12T16:48:39;101946.89;;;10.38;92.89
43683;BME280;29285;52.128;21.060;2022-11-12T16:53:40;101936.59;;;10.45;92.95
43683;BME280;29285;52.128;21.060;2022-11-12T16:58:43;101937.17;;;10.62;93.20
43683;BME280;29285;52.128;21.060;2022-11-12T17:03:45;101951.13;;;10.69;93.28
43683;BME280;29285;52.128;21.060;2022-11-12T17:08:46;101948.96;;;10.70;93.16
43683;BME280;29285;52.128;21.060;2022-11-12T17:13:48;101948.41;;;10.55;92.85
43683;BME280;29285;52.128;21.060;2022-11-12T17:18:52;101946.58;;;10.48;92.68
43683;BME280;29285;52.128;21.060;2022-11-12T17:23:54;101952.20;;;10.45;92.62
43683;BME280;29285;52.128;21.060;2022-11-12T17:28:57;101942.19;;;10.43;92.62
43683;BME280;29285;52.128;21.060;2022-11-12T17:33:59;101943.09;;;10.45;92.69
43683;BME280;29285;52.128;21.060;2022-11-12T17:39:00;101944.02;;;10.51;92.77
43683;BME280;29285;52.128;21.060;2022-11-12T17:44:01;101947.53;;;10.56;92.86
43683;BME280;29285;52.128;21.060;2022-11-12T17:49:02;101937.03;;;10.46;92.81
43683;BME280;29285;52.128;21.060;2022-11-12T17:54:03;101942.82;;;10.22;92.50
43683;BME280;29285;52.128;21.060;2022-11-12T17:59:04;101943.66;;;10.19;92.38
43683;BME280;29285;52.128;21.060;2022-11-12T18:04:05;101938.36;;;10.13;92.40
43683;BME280;29285;52.128;21.060;2022-11-12T18:09:10;101947.60;;;10.24;92.51
43683;BME280;29285;52.128;21.060;2022-11-12T18:14:16;101938.54;;;10.27;92.74
43683;BME280;29285;52.128;21.060;2022-11-12T18:19:17;101935.03;;;10.25;92.80
43683;BME280;29285;52.128;21.060;2022-11-12T18:24:18;101937.92;;;10.12;92.63
43683;BME280;29285;52.128;21.060;2022-11-12T18:29:19;101937.52;;;10.16;92.68
43683;BME280;29285;52.128;21.060;2022-11-12T18:34:20;101938.39;;;10.15;92.72
43683;BME280;29285;52.128;21.060;2022-11-12T18:39:21;101934.05;;;10.14;92.75
43683;BME280;29285;52.128;21.060;2022-11-12T18:44:24;101937.25;;;10.30;92.99
43683;BME280;29285;52.128;21.060;2022-11-12T18:49:25;101940.70;;;10.26;93.10
43683;BME280;29285;52.128;21.060;2022-11-12T18:54:26;101939.65;;;10.10;92.87
43683;BME280;29285;52.128;21.060;2022-11-12T18:59:29;101939.14;;;10.04;92.73
43683;BME280;29285;52.128;21.060;2022-11-12T19:04:32;101942.78;;;10.19;92.94
43683;BME280;29285;52.128;21.060;2022-11-12T19:09:32;101951.98;;;10.28;93.16
43683;BME280;29285;52.128;21.060;2022-11-12T19:14:33;101943.67;;;10.23;93.21
43683;BME280;29285;52.128;21.060;2022-11-12T19:19:34;101950.56;;;10.17;93.08
43683;BME280;29285;52.128;21.060;2022-11-12T19:24:35;101942.69;;;10.11;93.03
43683;BME280;29285;52.128;21.060;2022-11-12T19:29:36;101957.32;;;10.03;92.97
43683;BME280;29285;52.128;21.060;2022-11-12T19:34:37;101951.20;;;9.96;92.98
43683;BME280;29285;52.128;21.060;2022-11-12T19:39:39;101955.78;;;9.83;92.93
43683;BME280;29285;52.128;21.060;2022-11-12T19:44:40;101951.00;;;9.82;92.94
43683;BME280;29285;52.128;21.060;2022-11-12T19:49:41;101946.52;;;9.69;92.93
43683;BME280;29285;52.128;21.060;2022-11-12T19:54:41;101942.84;;;9.54;92.89
43683;BME280;29285;52.128;21.060;2022-11-12T19:59:42;101959.30;;;9.53;92.98
43683;BME280;29285;52.128;21.060;2022-11-12T20:04:43;101955.45;;;9.58;93.22
43683;BME280;29285;52.128;21.060;2022-11-12T20:09:44;101964.73;;;9.72;93.50
43683;BME280;29285;52.128;21.060;2022-11-12T20:14:45;101957.19;;;9.90;93.92
43683;BME280;29285;52.128;21.060;2022-11-12T20:19:46;101959.48;;;10.02;94.25
43683;BME280;29285;52.128;21.060;2022-11-12T20:24:47;101966.63;;;10.20;94.55
43683;BME280;29285;52.128;21.060;2022-11-12T20:29:48;101960.02;;;10.45;94.95
43683;BME280;29285;52.128;21.060;2022-11-12T20:34:49;101967.05;;;10.18;94.66
43683;BME280;29285;52.128;21.060;2022-11-12T20:39:50;101973.95;;;10.14;94.34
43683;BME280;29285;52.128;21.060;2022-11-12T20:44:51;101970.41;;;10.08;94.22
43683;BME280;29285;52.128;21.060;2022-11-12T20:49:53;101975.07;;;9.99;94.03
43683;BME280;29285;52.128;21.060;2022-11-12T20:54:54;101975.27;;;10.17;94.26
43683;BME280;29285;52.128;21.060;2022-11-12T20:59:55;101983.89;;;10.12;94.30
43683;BME280;29285;52.128;21.060;2022-11-12T21:04:56;101972.23;;;10.16;94.34
43683;BME280;29285;52.128;21.060;2022-11-12T21:10:01;101976.66;;;10.25;94.44
43683;BME280;29285;52.128;21.060;2022-11-12T21:15:26;101969.36;;;10.31;94.61
43683;BME280;29285;52.128;21.060;2022-11-12T21:20:23;101968.91;;;10.28;94.51
43683;BME280;29285;52.128;21.060;2022-11-12T21:25:28;101972.54;;;10.05;94.22
43683;BME280;29285;52.128;21.060;2022-11-12T21:30:27;101968.93;;;9.95;94.05
43683;BME280;29285;52.128;21.060;2022-11-12T21:35:28;101967.44;;;9.79;93.95
43683;BME280;29285;52.128;21.060;2022-11-12T21:40:29;101972.22;;;9.80;94.05
43683;BME280;29285;52.128;21.060;2022-11-12T21:45:30;101969.80;;;9.61;94.02
43683;BME280;29285;52.128;21.060;2022-11-12T21:50:34;101976.41;;;9.40;93.91
43683;BME280;29285;52.128;21.060;2022-11-12T21:55:39;101979.66;;;9.25;93.93
43683;BME280;29285;52.128;21.060;2022-11-12T22:00:44;101983.78;;;9.12;94.01
43683;BME280;29285;52.128;21.060;2022-11-12T22:05:45;101984.19;;;9.11;94.26
43683;BME280;29285;52.128;21.060;2022-11-12T22:10:46;101969.72;;;8.99;94.90
43683;BME280;29285;52.128;21.060;2022-11-12T22:15:47;101969.72;;;8.99;94.90
43683;BME280;29285;52.128;21.060;2022-11-12T22:21:02;101976.59;;;8.97;94.83
43683;BME280;29285;52.128;21.060;2022-11-12T22:26:00;101964.66;;;9.07;95.14
43683;BME280;29285;52.128;21.060;2022-11-12T22:31:07;101973.45;;;9.17;95.45
43683;BME280;29285;52.128;21.060;2022-11-12T22:36:15;101969.33;;;9.28;95.75
43683;BME280;29285;52.128;21.060;2022-11-12T22:41:22;101965.87;;;9.29;95.88
43683;BME280;29285;52.128;21.060;2022-11-12T22:46:30;101973.01;;;9.43;96.13
43683;BME280;29285;52.128;21.060;2022-11-12T22:51:33;101963.66;;;9.56;96.38
43683;BME280;29285;52.128;21.060;2022-11-12T22:56:35;101966.70;;;9.57;96.47
43683;BME280;29285;52.128;21.060;2022-11-12T23:01:36;101973.70;;;9.61;96.49
43683;BME280;29285;52.128;21.060;2022-11-12T23:06:37;101966.39;;;9.66;96.58
43683;BME280;29285;52.128;21.060;2022-11-12T23:11:38;101962.37;;;9.56;96.47
43683;BME280;29285;52.128;21.060;2022-11-12T23:16:39;101966.98;;;9.47;96.29
43683;BME280;29285;52.128;21.060;2022-11-12T23:21:40;101969.72;;;9.56;96.39
43683;BME280;29285;52.128;21.060;2022-11-12T23:26:41;101969.44;;;9.67;96.60
43683;BME280;29285;52.128;21.060;2022-11-12T23:31:42;101975.34;;;9.86;96.89
43683;BME280;29285;52.128;21.060;2022-11-12T23:36:43;101966.70;;;9.88;97.00
43683;BME280;29285;52.128;21.060;2022-11-12T23:41:44;101964.80;;;9.78;96.86
43683;BME280;29285;52.128;21.060;2022-11-12T23:46:45;101956.33;;;9.60;96.61
43683;BME280;29285;52.128;21.060;2022-11-12T23:51:46;101956.67;;;9.51;96.44
43683;BME280;29285;52.128;21.060;2022-11-12T23:56:47;101957.42;;;9.43;96.37
